createdAt,value
2022-09-12T00:02:24.957Z,100141.91
2022-09-12T00:05:28.176Z,100134.91
2022-09-12T00:08:30.017Z,100134.84
2022-09-12T00:11:32.133Z,100130.53
2022-09-12T00:14:34.667Z,100136.59
2022-09-12T00:17:37.859Z,100138.38
2022-09-12T00:20:47.203Z,100138.25
2022-09-12T00:23:49.640Z,100137.31
2022-09-12T00:26:51.460Z,100138.22
2022-09-12T00:29:53.661Z,100144.31
2022-09-12T00:32:58.010Z,100135.59
2022-09-12T00:35:59.797Z,100137.28
2022-09-12T00:39:01.639Z,100136.31
2022-09-12T00:42:03.689Z,100141.47
2022-09-12T00:45:06.090Z,100141.56
2022-09-12T00:48:22.635Z,100146.81
2022-09-12T00:51:24.670Z,100144.28
2022-09-12T00:54:30.831Z,100153.75
2022-09-12T00:57:45.331Z,100149.25
2022-09-12T01:00:47.621Z,100144.84
2022-09-12T01:03:49.700Z,100142.22
2022-09-12T01:06:53.102Z,100152.66
2022-09-12T01:09:55.373Z,100148.31
2022-09-12T01:12:57.620Z,100153.47
2022-09-12T01:15:59.269Z,100149.84
2022-09-12T01:19:16.508Z,100149.84
2022-09-12T01:22:23.911Z,100151.50
2022-09-12T01:25:37.110Z,100152.41
2022-09-12T01:28:44.700Z,100160.09
2022-09-12T01:31:54.585Z,100153.16
2022-09-12T01:35:12.600Z,100152.34
2022-09-12T01:38:29.582Z,100156.63
2022-09-12T01:41:50.211Z,100147.91
2022-09-12T01:45:15.478Z,100159.31
2022-09-12T01:48:24.947Z,100163.78
2022-09-12T01:51:36.130Z,100155.06
2022-09-12T01:55:03.080Z,100158.59
2022-09-12T01:58:13.220Z,100161.31
2022-09-12T02:01:20.526Z,100154.31
2022-09-12T02:04:24.969Z,100158.84
2022-09-12T02:07:42.491Z,100162.22
2022-09-12T02:10:59.286Z,100164.78
2022-09-12T02:14:12.457Z,100163.94
2022-09-12T02:17:21.406Z,100160.31
2022-09-12T02:20:47.483Z,100163.00
2022-09-12T02:23:57.436Z,100161.34
2022-09-12T02:27:12.604Z,100159.72
2022-09-12T02:30:16.636Z,100153.59
2022-09-12T02:33:31.570Z,100149.31
2022-09-12T02:36:50.255Z,100157.38
2022-09-12T02:39:55.323Z,100163.63
2022-09-12T02:42:57.839Z,100156.38
2022-09-12T02:46:00.146Z,100152.00
2022-09-12T02:49:02.315Z,100150.44
2022-09-12T02:52:04.589Z,100160.13
2022-09-12T02:55:08.140Z,100157.38
2022-09-12T02:58:16.265Z,100167.72
2022-09-12T03:01:26.883Z,100176.34
2022-09-12T03:04:43.710Z,100172.87
2022-09-12T03:08:03.755Z,100172.94
2022-09-12T03:11:31.668Z,100171.81
2022-09-12T03:14:47.928Z,100171.56
2022-09-12T03:17:56.038Z,100171.47
2022-09-12T03:21:05.754Z,100171.28
2022-09-12T03:24:39.747Z,100173.75
2022-09-12T03:27:51.878Z,100170.03
2022-09-12T03:30:55.965Z,100182.28
2022-09-12T03:33:59.997Z,100187.34
2022-09-12T03:37:02.255Z,100190.66
2022-09-12T03:40:08.461Z,100187.16
2022-09-12T03:43:10.999Z,100194.03
2022-09-12T03:46:13.643Z,100191.94
2022-09-12T03:49:15.669Z,100197.00
2022-09-12T03:52:17.280Z,100199.38
2022-09-12T03:55:19.132Z,100200.19
2022-09-12T03:58:21.241Z,100206.41
2022-09-12T04:01:23.193Z,100203.66
2022-09-12T04:04:25.086Z,100202.69
2022-09-12T04:07:27.448Z,100210.41
2022-09-12T04:10:29.393Z,100213.19
2022-09-12T04:13:31.056Z,100212.59
2022-09-12T04:16:33.110Z,100217.94
2022-09-12T04:19:34.915Z,100215.47
2022-09-12T04:22:36.849Z,100219.38
2022-09-12T04:25:38.475Z,100206.22
2022-09-12T04:28:41.475Z,100218.62
2022-09-12T04:31:43.972Z,100207.88
2022-09-12T04:34:47.253Z,100201.12
2022-09-12T04:37:48.864Z,100204.62
2022-09-12T04:40:50.675Z,100195.56
2022-09-12T04:43:55.031Z,100197.03
2022-09-12T04:46:57.319Z,100196.84
2022-09-12T04:49:58.889Z,100201.06
2022-09-12T04:53:00.743Z,100194.44
2022-09-12T04:56:04.188Z,100199.03
2022-09-12T04:59:06.524Z,100207.81
2022-09-12T05:02:08.449Z,100209.00
2022-09-12T05:05:11.552Z,100215.00
2022-09-12T05:08:13.530Z,100222.06
2022-09-12T05:11:24.787Z,100223.81
2022-09-12T05:14:28.696Z,100231.91
2022-09-12T05:17:30.631Z,100231.06
2022-09-12T05:20:34.169Z,100232.91
2022-09-12T05:23:36.476Z,100234.97
2022-09-12T05:26:38.522Z,100230.41
2022-09-12T05:29:40.265Z,100236.56
2022-09-12T05:32:41.852Z,100240.25
2022-09-12T05:35:51.762Z,100240.53
2022-09-12T05:38:54.258Z,100233.19
2022-09-12T05:41:56.408Z,100239.44
2022-09-12T05:44:58.745Z,100238.13
2022-09-12T05:48:00.587Z,100239.88
2022-09-12T05:51:06.834Z,100240.22
2022-09-12T05:54:11.100Z,100235.97
2022-09-12T05:57:12.678Z,100250.56
2022-09-12T06:00:15.278Z,100251.66
2022-09-12T06:03:17.882Z,100251.75
2022-09-12T06:06:21.740Z,100245.75
2022-09-12T06:09:25.503Z,100235.44
2022-09-12T06:12:30.077Z,100241.03
2022-09-12T06:15:32.971Z,100240.25
2022-09-12T06:18:35.914Z,100238.56
2022-09-12T06:21:47.970Z,100241.34
2022-09-12T06:24:49.708Z,100234.53
2022-09-12T06:27:56.264Z,100244.16
2022-09-12T06:31:06.152Z,100245.25
2022-09-12T06:34:10.559Z,100250.66
2022-09-12T06:37:12.162Z,100245.53
2022-09-12T06:40:16.376Z,100248.09
2022-09-12T06:43:18.010Z,100234.09
2022-09-12T06:46:20.479Z,100242.03
2022-09-12T06:49:22.381Z,100242.97
2022-09-12T06:52:24.031Z,100243.00
2022-09-12T06:55:27.717Z,100246.53
2022-09-12T06:58:30.386Z,100251.78
2022-09-12T07:01:32.648Z,100250.84
2022-09-12T07:04:36.791Z,100249.09
2022-09-12T07:07:38.401Z,100256.91
2022-09-12T07:10:39.948Z,100249.88
2022-09-12T07:13:43.872Z,100269.19
2022-09-12T07:16:45.530Z,100245.34
2022-09-12T07:19:47.613Z,100254.94
2022-09-12T07:22:50.999Z,100252.31
2022-09-12T07:25:54.475Z,100254.53
2022-09-12T07:29:12.728Z,100251.59
2022-09-12T07:32:19.202Z,100245.84
2022-09-12T07:35:21.695Z,100251.59
2022-09-12T07:38:23.575Z,100259.41
2022-09-12T07:41:28.319Z,100256.59
2022-09-12T07:44:30.307Z,100257.25
2022-09-12T07:47:31.871Z,100260.97
2022-09-12T07:50:33.803Z,100264.47
2022-09-12T07:53:38.441Z,100270.03
2022-09-12T07:56:40.888Z,100263.91
2022-09-12T07:59:52.451Z,100266.16
2022-09-12T08:02:55.320Z,100264.75
2022-09-12T08:06:06.867Z,100265.09
2022-09-12T08:09:09.142Z,100259.06
2022-09-12T08:12:10.818Z,100257.59
2022-09-12T08:15:12.431Z,100263.97
2022-09-12T08:18:14.640Z,100259.97
2022-09-12T08:21:22.988Z,100254.94
2022-09-12T08:24:25.103Z,100255.56
2022-09-12T08:27:26.864Z,100262.69
2022-09-12T08:30:29.516Z,100254.37
2022-09-12T08:33:35.443Z,100260.19
2022-09-12T08:36:37.170Z,100260.94
2022-09-12T08:39:38.957Z,100254.37
2022-09-12T08:42:49.806Z,100263.78
2022-09-12T08:46:17.610Z,100248.03
2022-09-12T08:49:27.987Z,100252.78
2022-09-12T08:52:39.571Z,100248.25
2022-09-12T08:55:54.154Z,100236.81
2022-09-12T08:58:56.229Z,100235.34
2022-09-12T09:02:01.747Z,100238.34
2022-09-12T09:05:08.060Z,100237.44
2022-09-12T09:08:16.251Z,100239.31
2022-09-12T09:11:32.916Z,100235.31
2022-09-12T09:15:05.282Z,100233.41
2022-09-12T09:18:30.085Z,100225.16
2022-09-12T09:21:41.288Z,100222.31
2022-09-12T09:24:51.389Z,100220.91
2022-09-12T09:28:03.821Z,100224.91
2022-09-12T09:31:12.121Z,100218.56
2022-09-12T09:34:20.193Z,100221.19
2022-09-12T09:37:38.269Z,100221.44
2022-09-12T09:41:04.163Z,100222.31
2022-09-12T09:47:12.898Z,100216.06
2022-09-12T09:50:17.228Z,100220.63
2022-09-12T09:53:40.093Z,100231.94
2022-09-12T09:56:43.025Z,100217.91
2022-09-12T09:59:44.935Z,100217.59
2022-09-12T10:02:59.415Z,100216.69
2022-09-12T10:06:07.595Z,100209.38
2022-09-12T10:09:15.587Z,100216.34
2022-09-12T10:12:35.305Z,100209.06
2022-09-12T10:15:38.482Z,100206.78
2022-09-12T10:18:42.890Z,100206.47
2022-09-12T10:21:52.735Z,100203.53
2022-09-12T10:24:59.042Z,100206.37
2022-09-12T10:28:21.521Z,100208.59
2022-09-12T10:31:32.687Z,100205.12
2022-09-12T10:34:38.000Z,100199.84
2022-09-12T10:37:40.386Z,100204.41
2022-09-12T10:40:43.960Z,100215.00
2022-09-12T10:43:46.180Z,100210.13
2022-09-12T10:46:48.310Z,100210.78
2022-09-12T10:49:51.561Z,100201.19
2022-09-12T10:52:54.975Z,100207.22
2022-09-12T10:56:05.615Z,100204.91
2022-09-12T10:59:45.268Z,100201.06
2022-09-12T11:03:13.653Z,100199.28
2022-09-12T11:06:24.249Z,100199.44
2022-09-12T11:09:37.822Z,100202.81
2022-09-12T11:12:56.559Z,100210.69
2022-09-12T11:16:07.220Z,100212.44
2022-09-12T11:19:46.014Z,100198.84
2022-09-12T11:23:31.362Z,100200.06
2022-09-12T11:26:41.936Z,100192.87
2022-09-12T11:29:52.125Z,100196.22
2022-09-12T11:33:29.048Z,100199.72
2022-09-12T11:36:44.894Z,100191.12
2022-09-12T11:39:55.386Z,100206.53
2022-09-12T11:43:07.745Z,100203.34
2022-09-12T11:46:12.600Z,100208.81
2022-09-12T11:49:24.224Z,100204.81
2022-09-12T11:52:34.198Z,100211.47
2022-09-12T11:56:02.477Z,100206.97
2022-09-12T11:59:14.092Z,100209.59
2022-09-12T12:02:27.904Z,100218.22
2022-09-12T12:05:52.236Z,100221.69
2022-09-12T12:08:54.292Z,100213.97
2022-09-12T12:11:58.577Z,100207.38
2022-09-12T12:15:01.361Z,100206.50
2022-09-12T12:18:05.180Z,100206.69
2022-09-12T12:21:37.599Z,100219.47
2022-09-12T12:25:12.535Z,100210.50
2022-09-12T12:28:43.179Z,100213.22
2022-09-12T12:32:03.574Z,100211.31
2022-09-12T12:35:42.253Z,100201.88
2022-09-12T12:38:44.537Z,100202.75
2022-09-12T12:41:46.587Z,100196.03
2022-09-12T12:44:51.779Z,100195.72
2022-09-12T12:48:10.165Z,100193.37
2022-09-12T12:51:27.321Z,100191.06
2022-09-12T12:54:41.118Z,100186.69
2022-09-12T12:57:54.373Z,100186.81
2022-09-12T13:01:23.165Z,100198.06
2022-09-12T13:04:32.550Z,100193.16
2022-09-12T13:07:38.976Z,100185.66
2022-09-12T13:10:53.140Z,100197.47
2022-09-12T13:14:00.951Z,100191.12
2022-09-12T13:17:07.812Z,100202.09
2022-09-12T13:20:30.115Z,100190.47
2022-09-12T13:23:33.068Z,100197.31
2022-09-12T13:26:43.117Z,100193.44
2022-09-12T13:29:44.998Z,100200.56
2022-09-12T13:32:46.632Z,100201.81
2022-09-12T13:36:06.636Z,100193.44
2022-09-12T13:39:37.426Z,100206.13
2022-09-12T13:42:48.851Z,100207.38
2022-09-12T13:45:52.875Z,100198.78
2022-09-12T13:48:54.476Z,100188.75
2022-09-12T13:52:15.775Z,100178.44
2022-09-12T13:55:40.556Z,100189.16
2022-09-12T13:58:56.836Z,100184.72
2022-09-12T14:01:58.462Z,100177.84
2022-09-12T14:05:12.263Z,100170.75
2022-09-12T14:08:17.384Z,100173.38
2022-09-12T14:11:34.112Z,100171.12
2022-09-12T14:14:42.406Z,100172.25
2022-09-12T14:17:51.982Z,100168.31
2022-09-12T14:20:57.338Z,100167.91
2022-09-12T14:24:00.872Z,100162.13
2022-09-12T14:27:02.831Z,100161.69
2022-09-12T14:30:27.805Z,100159.56
2022-09-12T14:33:33.084Z,100159.13
2022-09-12T14:36:39.769Z,100163.69
2022-09-12T14:39:44.904Z,100155.13
2022-09-12T14:42:51.623Z,100157.38
2022-09-12T14:46:02.491Z,100166.13
2022-09-12T14:49:09.306Z,100174.97
2022-09-12T14:52:29.748Z,100167.53
2022-09-12T14:55:34.006Z,100160.06
2022-09-12T14:58:36.898Z,100165.22
2022-09-12T15:01:38.995Z,100157.62
2022-09-12T15:04:43.259Z,100154.63
2022-09-12T15:07:53.702Z,100152.53
2022-09-12T15:10:55.855Z,100154.84
2022-09-12T15:13:57.683Z,100153.25
2022-09-12T15:16:59.416Z,100145.00
2022-09-12T15:20:01.333Z,100145.75
2022-09-12T15:23:03.701Z,100152.97
2022-09-12T15:26:06.442Z,100153.38
2022-09-12T15:29:08.616Z,100161.16
2022-09-12T15:32:22.697Z,100151.53
2022-09-12T15:35:33.800Z,100155.28
2022-09-12T15:38:35.629Z,100156.50
2022-09-12T15:41:38.393Z,100156.00
2022-09-12T15:44:40.759Z,100150.91
2022-09-12T15:47:42.577Z,100154.38
2022-09-12T15:50:44.700Z,100158.75
2022-09-12T15:53:48.398Z,100161.47
2022-09-12T15:56:50.168Z,100159.78
2022-09-12T15:59:51.964Z,100159.22
2022-09-12T16:02:54.675Z,100160.19
2022-09-12T16:06:01.917Z,100165.59
2022-09-12T16:09:03.527Z,100162.19
2022-09-12T16:12:05.207Z,100158.75
2022-09-12T16:15:07.478Z,100163.25
2022-09-12T16:18:09.639Z,100158.13
2022-09-12T16:21:15.317Z,100167.84
2022-09-12T16:24:17.562Z,100166.22
2022-09-12T16:27:19.676Z,100163.63
2022-09-12T16:30:21.738Z,100161.91
2022-09-12T16:33:24.169Z,100166.37
2022-09-12T16:36:25.828Z,100163.81
2022-09-12T16:39:27.415Z,100167.44
2022-09-12T16:42:28.999Z,100169.25
2022-09-12T16:45:30.907Z,100171.97
2022-09-12T16:48:33.806Z,100171.12
2022-09-12T16:51:38.604Z,100172.03
2022-09-12T16:54:40.869Z,100174.69
2022-09-12T16:57:42.533Z,100178.34
2022-09-12T17:00:44.131Z,100180.22
2022-09-12T17:03:46.056Z,100177.62
2022-09-12T17:06:47.793Z,100175.00
2022-09-12T17:09:49.799Z,100179.47
2022-09-12T17:12:51.485Z,100179.50
2022-09-12T17:15:53.178Z,100184.81
2022-09-12T17:18:55.437Z,100185.75
2022-09-12T17:21:57.756Z,100178.72
2022-09-12T17:24:59.395Z,100183.19
2022-09-12T17:28:01.229Z,100183.19
2022-09-12T17:31:07.258Z,100184.09
2022-09-12T17:34:09.929Z,100194.66
2022-09-12T17:37:11.862Z,100193.78
2022-09-12T17:40:13.987Z,100203.47
2022-09-12T17:43:16.376Z,100202.63
2022-09-12T17:46:19.948Z,100204.34
2022-09-12T17:49:22.321Z,100206.97
2022-09-12T17:52:24.374Z,100209.59
2022-09-12T17:55:26.710Z,100210.47
2022-09-12T17:58:28.380Z,100214.84
2022-09-12T18:01:49.498Z,100235.06
2022-09-12T18:04:51.143Z,100227.16
2022-09-12T18:07:53.097Z,100233.28
2022-09-12T18:11:03.178Z,100236.78
2022-09-12T18:14:05.392Z,100234.13
2022-09-12T18:17:09.025Z,100235.88
2022-09-12T18:20:10.912Z,100237.63
2022-09-12T18:23:13.049Z,100247.25
2022-09-12T18:26:15.208Z,100246.38
2022-09-12T18:29:17.735Z,100241.06
2022-09-12T18:32:19.735Z,100241.09
2022-09-12T18:35:21.793Z,100238.44
2022-09-12T18:38:23.822Z,100246.34
2022-09-12T18:41:26.535Z,100241.06
2022-09-12T18:44:28.713Z,100248.97
2022-09-12T18:47:30.691Z,100242.81
2022-09-12T18:50:33.709Z,100249.78
2022-09-12T18:53:37.476Z,100247.16
2022-09-12T18:56:41.347Z,100242.69
2022-09-12T18:59:43.634Z,100240.91
2022-09-12T19:02:45.792Z,100241.75
2022-09-12T19:05:48.038Z,100247.88
2022-09-12T19:08:52.140Z,100248.66
2022-09-12T19:11:54.212Z,100248.62
2022-09-12T19:14:56.248Z,100245.09
2022-09-12T19:17:58.486Z,100249.44
2022-09-12T19:21:01.831Z,100242.34
2022-09-12T19:24:11.636Z,100251.13
2022-09-12T19:27:13.970Z,100245.78
2022-09-12T19:30:15.990Z,100247.50
2022-09-12T19:33:18.797Z,100252.72
2022-09-12T19:36:43.765Z,100253.56
2022-09-12T19:39:46.155Z,100257.03
2022-09-12T19:42:48.106Z,100255.13
2022-09-12T19:45:49.976Z,100258.53
2022-09-12T19:48:52.947Z,100265.47
2022-09-12T19:51:55.059Z,100263.72
2022-09-12T19:54:56.664Z,100267.25
2022-09-12T19:57:58.259Z,100274.06
2022-09-12T20:01:21.372Z,100277.50
2022-09-12T20:04:23.093Z,100280.09
2022-09-12T20:07:25.113Z,100285.34
2022-09-12T20:10:27.301Z,100275.69
2022-09-12T20:13:28.976Z,100282.62
2022-09-12T20:16:31.153Z,100291.37
2022-09-12T20:19:33.453Z,100288.69
2022-09-12T20:22:39.409Z,100283.50
2022-09-12T20:25:42.134Z,100285.44
2022-09-12T20:28:44.027Z,100295.09
2022-09-12T20:31:46.089Z,100306.47
2022-09-12T20:34:48.149Z,100299.69
2022-09-12T20:37:50.221Z,100298.41
2022-09-12T20:40:51.960Z,100301.28
2022-09-12T20:43:55.535Z,100302.06
2022-09-12T20:46:57.411Z,100298.63
2022-09-12T20:49:59.312Z,100308.28
2022-09-12T20:53:01.724Z,100309.97
2022-09-12T20:56:05.323Z,100304.75
2022-09-12T20:59:07.037Z,100310.09
2022-09-12T21:02:15.948Z,100308.31
2022-09-12T21:05:17.784Z,100309.19
2022-09-12T21:08:19.610Z,100308.16
2022-09-12T21:11:21.220Z,100313.34
2022-09-12T21:14:23.052Z,100312.22
2022-09-12T21:17:24.655Z,100320.81
2022-09-12T21:20:26.480Z,100319.09
2022-09-12T21:23:29.054Z,100321.69
2022-09-12T21:26:31.435Z,100333.50
2022-09-12T21:29:33.452Z,100328.91
2022-09-12T21:32:36.017Z,100329.69
2022-09-12T21:35:37.927Z,100327.03
2022-09-12T21:38:39.844Z,100323.44
2022-09-12T21:41:41.612Z,100323.34
2022-09-12T21:44:43.434Z,100326.69
2022-09-12T21:47:46.021Z,100326.56
2022-09-12T21:50:51.035Z,100330.81
2022-09-12T21:53:52.702Z,100329.19
2022-09-12T21:56:54.265Z,100328.16
2022-09-12T21:59:55.848Z,100328.31
2022-09-12T22:02:59.123Z,100333.47
2022-09-12T22:06:04.039Z,100330.81
2022-09-12T22:09:05.907Z,100330.66
2022-09-12T22:12:08.741Z,100329.19
2022-09-12T22:15:36.303Z,100323.34
2022-09-12T22:18:33.970Z,100327.50
2022-09-12T22:21:55.493Z,100337.75
2022-09-12T22:24:57.055Z,100343.00
2022-09-12T22:27:58.920Z,100345.41
2022-09-12T22:31:01.394Z,100346.53
2022-09-12T22:34:03.846Z,100342.50
2022-09-12T22:37:05.852Z,100350.62
2022-09-12T22:40:08.017Z,100349.75
2022-09-12T22:43:09.659Z,100356.16
2022-09-12T22:46:14.845Z,100346.09
2022-09-12T22:49:16.493Z,100340.47
2022-09-12T22:52:18.363Z,100341.25
2022-09-12T22:55:19.926Z,100341.03
2022-09-12T22:58:21.872Z,100342.69
2022-09-12T23:01:24.166Z,100338.06
2022-09-12T23:04:25.887Z,100343.88
2022-09-12T23:07:27.707Z,100343.13
2022-09-12T23:10:29.426Z,100338.19
2022-09-12T23:13:32.508Z,100336.44
2022-09-12T23:16:34.203Z,100339.38
2022-09-12T23:19:36.116Z,100343.50
2022-09-12T23:22:38.351Z,100343.28
2022-09-12T23:25:39.941Z,100341.91
2022-09-12T23:28:47.839Z,100351.53
2022-09-12T23:31:49.786Z,100350.47
2022-09-12T23:34:52.803Z,100350.66
2022-09-12T23:37:54.464Z,100356.09
2022-09-12T23:40:56.369Z,100360.75
2022-09-12T23:43:58.109Z,100347.56
2022-09-12T23:47:00.034Z,100339.91
2022-09-12T23:50:01.730Z,100336.34
2022-09-12T23:53:03.692Z,100332.22
2022-09-12T23:56:06.275Z,100340.59
2022-09-12T23:59:08.334Z,100330.62
